Time;durP1;ratioP1;P1;durP2;ratioP2;P2;SDS_P1;SDS_P2;PMS_P1;PMS_P2;Temp;Humidity;BMP_temperature;BMP_pressure;BME280_temperature;BME280_humidity;BME280_pressure;Samples;Min_cycle;Max_cycle;Signal;HPM_P1;HPM_P2
2021/05/23 00:01:14;;;;;;;2.53;0.60;;;;;;;;;;4999075;28;20031;-67
2021/05/23 00:03:40;;;;;;;3.25;0.68;;;;;;;;;;5008234;28;20089;-67
2021/05/23 00:06:05;;;;;;;1.15;0.93;;;;;;;;;;5000842;28;20038;-67
2021/05/23 00:08:30;;;;;;;1.55;0.50;;;;;;;;;;5013807;28;20049;-67
2021/05/23 00:11:02;;;;;;;2.10;0.57;;;;;;;;;;5000754;28;20462;-67
2021/05/23 00:13:37;;;;;;;1.42;0.88;;;;;;;;;;5008120;28;20053;-66
2021/05/23 00:16:08;;;;;;;1.90;0.50;;;;;;;;;;5010320;28;20106;-67
2021/05/23 00:18:38;;;;;;;2.15;0.70;;;;;;;;;;5012724;28;20030;-66
2021/05/23 00:21:04;;;;;;;1.65;0.80;;;;;;;;;;5005914;28;20044;-67
2021/05/23 00:23:30;;;;;;;1.77;0.50;;;;;;;;;;5012574;28;20084;-67
2021/05/23 00:25:59;;;;;;;2.50;0.50;;;;;;;;;;5006067;28;20042;-67
2021/05/23 00:28:24;;;;;;;0.47;0.40;;;;;;;;;;5005913;28;20022;-66
2021/05/23 00:30:50;;;;;;;0.80;0.55;;;;;;;;;;5003654;28;20109;-67
2021/05/23 00:33:16;;;;;;;0.55;0.47;;;;;;;;;;5009948;28;20042;-67
2021/05/23 00:35:41;;;;;;;0.90;0.60;;;;;;;;;;5013462;28;20092;-67
2021/05/23 00:38:08;;;;;;;1.33;0.60;;;;;;;;;;5006087;28;20222;-67
2021/05/23 00:40:35;;;;;;;0.50;0.50;;;;;;;;;;4998097;28;20034;-67
2021/05/23 00:43:01;;;;;;;0.47;0.47;;;;;;;;;;5018874;28;20033;-67
2021/05/23 00:45:27;;;;;;;1.33;0.68;;;;;;;;;;5005018;28;20515;-67
2021/05/23 00:47:52;;;;;;;1.40;0.50;;;;;;;;;;5016556;28;20134;-67
2021/05/23 00:50:21;;;;;;;1.73;0.80;;;;;;;;;;5001231;28;20026;-67
2021/05/23 00:52:47;;;;;;;0.85;0.60;;;;;;;;;;5000731;28;20030;-67
2021/05/23 00:55:12;;;;;;;2.15;1.10;;;;;;;;;;5001323;28;20049;-66
2021/05/23 00:57:38;;;;;;;0.80;0.60;;;;;;;;;;4996552;28;20045;-67
2021/05/23 01:00:09;;;;;;;1.17;0.55;;;;;;;;;;5012613;28;20118;-66
2021/05/23 01:02:49;;;;;;;1.00;0.60;;;;;;;;;;5004780;28;20040;-66
2021/05/23 01:05:18;;;;;;;1.98;0.70;;;;;;;;;;5001239;28;20513;-67
2021/05/23 01:07:45;;;;;;;2.43;0.50;;;;;;;;;;5005939;28;20030;-67
2021/05/23 01:10:18;;;;;;;0.93;0.60;;;;;;;;;;5011127;28;20280;-67
2021/05/23 01:12:52;;;;;;;0.77;0.47;;;;;;;;;;5004639;28;20021;-67
2021/05/23 01:15:31;;;;;;;1.48;0.40;;;;;;;;;;5002831;28;20034;-66
2021/05/23 01:18:01;;;;;;;1.50;0.80;;;;;;;;;;4996338;28;20026;-67
2021/05/23 01:20:36;;;;;;;1.52;0.50;;;;;;;;;;5003156;28;20445;-68
2021/05/23 01:23:24;;;;;;;2.30;0.50;;;;;;;;;;5004535;28;20022;-68
2021/05/23 01:25:54;;;;;;;1.50;0.60;;;;;;;;;;5005900;28;20372;-67
2021/05/23 01:28:20;;;;;;;2.15;0.60;;;;;;;;;;4998757;28;20023;-68
2021/05/23 01:30:49;;;;;;;2.47;0.57;;;;;;;;;;5004194;28;20029;-68
2021/05/23 01:33:18;;;;;;;1.85;0.80;;;;;;;;;;5005496;28;20079;-67
2021/05/23 01:35:47;;;;;;;0.80;0.40;;;;;;;;;;4997399;28;20026;-68
2021/05/23 01:38:16;;;;;;;1.08;0.50;;;;;;;;;;5006456;28;20100;-67
2021/05/23 01:40:43;;;;;;;0.70;0.50;;;;;;;;;;5003545;28;20037;-68
2021/05/23 01:43:09;;;;;;;0.73;0.50;;;;;;;;;;5015918;28;20033;-68
2021/05/23 01:45:36;;;;;;;0.55;0.40;;;;;;;;;;5010641;28;20041;-67
2021/05/23 01:48:04;;;;;;;1.48;0.57;;;;;;;;;;5000844;28;20113;-68
2021/05/23 01:50:30;;;;;;;0.80;0.50;;;;;;;;;;4999246;28;20057;-67
2021/05/23 01:52:59;;;;;;;0.50;0.50;;;;;;;;;;5000155;28;20478;-67
2021/05/23 01:55:25;;;;;;;1.02;0.50;;;;;;;;;;5018928;28;20064;-67
2021/05/23 01:57:51;;;;;;;1.42;0.50;;;;;;;;;;4999557;28;20486;-67
2021/05/23 02:00:20;;;;;;;1.05;0.73;;;;;;;;;;5003204;28;20040;-68
2021/05/23 02:02:45;;;;;;;1.15;0.60;;;;;;;;;;5001675;28;20030;-67
2021/05/23 02:05:12;;;;;;;2.38;0.60;;;;;;;;;;5002601;28;20081;-67
2021/05/23 02:07:38;;;;;;;0.40;0.40;;;;;;;;;;5008890;28;20046;-67
2021/05/23 02:10:06;;;;;;;1.95;0.40;;;;;;;;;;4998347;28;20305;-67
2021/05/23 02:12:33;;;;;;;0.95;0.40;;;;;;;;;;5009688;28;20037;-67
2021/05/23 02:15:00;;;;;;;1.00;0.50;;;;;;;;;;5011238;28;20053;-68
2021/05/23 02:17:25;;;;;;;2.03;0.80;;;;;;;;;;5023474;28;20060;-68
2021/05/23 02:19:50;;;;;;;0.70;0.57;;;;;;;;;;5012379;28;20084;-68
2021/05/23 02:22:16;;;;;;;0.65;0.50;;;;;;;;;;5007580;28;20136;-68
2021/05/23 02:24:45;;;;;;;1.20;0.40;;;;;;;;;;5006523;28;20061;-67
2021/05/23 02:27:12;;;;;;;0.98;0.50;;;;;;;;;;4997776;28;20477;-68
2021/05/23 02:29:38;;;;;;;0.40;0.40;;;;;;;;;;5001854;28;20474;-68
2021/05/23 02:32:07;;;;;;;2.28;0.50;;;;;;;;;;5007018;28;20033;-68
2021/05/23 02:34:34;;;;;;;1.85;0.50;;;;;;;;;;5017134;28;20045;-67
2021/05/23 02:36:59;;;;;;;2.47;0.80;;;;;;;;;;5017490;28;20049;-68
2021/05/23 02:39:25;;;;;;;0.55;0.40;;;;;;;;;;5006845;28;20034;-68
2021/05/23 02:41:50;;;;;;;0.47;0.35;;;;;;;;;;5005757;28;20069;-68
2021/05/23 02:44:16;;;;;;;0.70;0.40;;;;;;;;;;5016513;28;20045;-67
2021/05/23 02:46:42;;;;;;;0.60;0.50;;;;;;;;;;5007974;28;20030;-68
2021/05/23 02:49:13;;;;;;;0.80;0.30;;;;;;;;;;5018528;28;20465;-68
2021/05/23 02:51:39;;;;;;;0.40;0.40;;;;;;;;;;5002526;28;20030;-68
2021/05/23 02:54:05;;;;;;;0.40;0.40;;;;;;;;;;5006280;28;20385;-66
2021/05/23 02:56:30;;;;;;;0.55;0.43;;;;;;;;;;5008041;28;20121;-67
2021/05/23 02:58:56;;;;;;;0.30;0.30;;;;;;;;;;5007555;28;20097;-67
2021/05/23 03:01:21;;;;;;;0.95;0.45;;;;;;;;;;5022483;28;20473;-67
2021/05/23 03:03:47;;;;;;;1.17;0.50;;;;;;;;;;5009390;28;20370;-67
2021/05/23 03:06:12;;;;;;;2.28;0.52;;;;;;;;;;5012234;28;20112;-68
2021/05/23 03:08:37;;;;;;;0.45;0.45;;;;;;;;;;5005234;28;20121;-68
2021/05/23 03:11:03;;;;;;;1.92;0.60;;;;;;;;;;5013958;28;20084;-68
2021/05/23 03:13:28;;;;;;;1.75;0.50;;;;;;;;;;4999661;28;20034;-68
2021/05/23 03:15:54;;;;;;;0.70;0.60;;;;;;;;;;5010848;28;20045;-67
2021/05/23 03:18:19;;;;;;;0.57;0.57;;;;;;;;;;5001011;28;20022;-67
2021/05/23 03:20:45;;;;;;;1.13;0.50;;;;;;;;;;5005938;28;20092;-67
2021/05/23 03:23:11;;;;;;;1.20;0.47;;;;;;;;;;5018306;28;20384;-67
2021/05/23 03:25:37;;;;;;;0.45;0.38;;;;;;;;;;5003771;28;20075;-67
2021/05/23 03:28:04;;;;;;;0.75;0.50;;;;;;;;;;5007391;28;20408;-67
2021/05/23 03:30:32;;;;;;;0.52;0.40;;;;;;;;;;5016219;28;20036;-67
2021/05/23 03:32:57;;;;;;;0.75;0.50;;;;;;;;;;5008843;28;20022;-68
2021/05/23 03:35:23;;;;;;;0.45;0.43;;;;;;;;;;5013105;28;20029;-68
2021/05/23 03:37:49;;;;;;;0.30;0.30;;;;;;;;;;5006648;28;20077;-67
2021/05/23 03:40:16;;;;;;;0.70;0.50;;;;;;;;;;5009088;28;20033;-67
2021/05/23 03:42:46;;;;;;;0.35;0.35;;;;;;;;;;5010530;28;20033;-67
2021/05/23 03:45:14;;;;;;;0.93;0.47;;;;;;;;;;5004474;28;20030;-67
2021/05/23 03:47:42;;;;;;;1.08;0.50;;;;;;;;;;5018480;28;20042;-67
2021/05/23 03:50:09;;;;;;;0.70;0.50;;;;;;;;;;5017702;28;20045;-67
2021/05/23 03:52:35;;;;;;;0.93;0.40;;;;;;;;;;5010804;28;20657;-67
2021/05/23 03:55:01;;;;;;;0.82;0.50;;;;;;;;;;5007950;28;20131;-67
2021/05/23 03:57:26;;;;;;;0.82;0.50;;;;;;;;;;5014927;28;20504;-67
2021/05/23 03:59:52;;;;;;;0.82;0.50;;;;;;;;;;5014495;28;20025;-67
2021/05/23 04:02:17;;;;;;;0.40;0.40;;;;;;;;;;4995279;28;20037;-67
2021/05/23 04:04:50;;;;;;;0.50;0.50;;;;;;;;;;5002550;28;20034;-66
2021/05/23 04:07:18;;;;;;;0.65;0.50;;;;;;;;;;5002537;28;20022;-67
2021/05/23 04:09:45;;;;;;;0.90;0.45;;;;;;;;;;5001689;28;20138;-67
2021/05/23 04:12:17;;;;;;;0.40;0.40;;;;;;;;;;5018472;28;20021;-67
2021/05/23 04:14:43;;;;;;;0.75;0.40;;;;;;;;;;5008098;28;20092;-66
2021/05/23 04:17:08;;;;;;;0.68;0.40;;;;;;;;;;5005849;28;20485;-66
2021/05/23 04:19:35;;;;;;;0.80;0.38;;;;;;;;;;5005703;28;20100;-67
2021/05/23 04:22:02;;;;;;;0.50;0.40;;;;;;;;;;5010490;28;20040;-67
2021/05/23 04:24:28;;;;;;;0.43;0.43;;;;;;;;;;5012546;28;20465;-66
2021/05/23 04:26:56;;;;;;;1.05;0.47;;;;;;;;;;5015085;28;20033;-66
2021/05/23 04:29:21;;;;;;;0.90;0.57;;;;;;;;;;5005117;28;20026;-67
2021/05/23 04:31:46;;;;;;;1.73;0.75;;;;;;;;;;5010522;28;20048;-67
2021/05/23 04:34:12;;;;;;;1.00;0.60;;;;;;;;;;4997302;28;20085;-66
2021/05/23 04:36:37;;;;;;;1.67;0.50;;;;;;;;;;5004236;28;20038;-66
2021/05/23 04:39:05;;;;;;;1.50;0.43;;;;;;;;;;4991899;28;20038;-66
2021/05/23 04:41:31;;;;;;;1.77;0.73;;;;;;;;;;5003452;28;20536;-66
2021/05/23 04:43:57;;;;;;;0.50;0.50;;;;;;;;;;5008768;28;20033;-66
2021/05/23 04:46:22;;;;;;;0.75;0.60;;;;;;;;;;5016707;28;20029;-67
2021/05/23 04:48:48;;;;;;;0.70;0.60;;;;;;;;;;5005551;28;20054;-67
2021/05/23 04:51:13;;;;;;;1.05;0.60;;;;;;;;;;5011696;28;20060;-67
2021/05/23 04:53:40;;;;;;;0.85;0.63;;;;;;;;;;5005935;28;20473;-67
2021/05/23 04:56:07;;;;;;;1.50;0.57;;;;;;;;;;4995419;28;20033;-67
2021/05/23 04:58:33;;;;;;;0.70;0.60;;;;;;;;;;5002951;28;20392;-67
2021/05/23 05:00:58;;;;;;;1.25;0.70;;;;;;;;;;5011915;28;20030;-67
2021/05/23 05:03:26;;;;;;;0.60;0.60;;;;;;;;;;5004191;28;20030;-68
2021/05/23 05:05:52;;;;;;;0.88;0.52;;;;;;;;;;5014301;28;20424;-67
2021/05/23 05:08:17;;;;;;;1.25;0.50;;;;;;;;;;5012020;28;20072;-67
2021/05/23 05:10:42;;;;;;;1.27;0.50;;;;;;;;;;5006234;28;20176;-67
2021/05/23 05:13:08;;;;;;;0.80;0.43;;;;;;;;;;5000026;28;20026;-67
2021/05/23 05:15:33;;;;;;;1.35;0.60;;;;;;;;;;5009379;28;20044;-67
2021/05/23 05:17:59;;;;;;;0.73;0.40;;;;;;;;;;5003402;28;20029;-67
2021/05/23 05:20:26;;;;;;;0.95;0.60;;;;;;;;;;5018062;28;20585;-67
2021/05/23 05:22:52;;;;;;;2.53;0.80;;;;;;;;;;5009669;28;20034;-67
2021/05/23 05:25:18;;;;;;;0.50;0.47;;;;;;;;;;5014503;28;20591;-67
2021/05/23 05:27:43;;;;;;;0.60;0.40;;;;;;;;;;5008950;28;20045;-67
2021/05/23 05:30:10;;;;;;;2.92;0.88;;;;;;;;;;5014298;28;20438;-68
2021/05/23 05:32:35;;;;;;;1.90;0.40;;;;;;;;;;5007193;28;20033;-68
2021/05/23 05:35:01;;;;;;;0.68;0.30;;;;;;;;;;5004313;28;20377;-67
2021/05/23 05:37:26;;;;;;;0.63;0.40;;;;;;;;;;4997423;28;20074;-68
2021/05/23 05:39:51;;;;;;;0.75;0.60;;;;;;;;;;5003481;28;20029;-67
2021/05/23 05:42:17;;;;;;;0.65;0.65;;;;;;;;;;5008021;28;20033;-68
2021/05/23 05:44:42;;;;;;;0.60;0.40;;;;;;;;;;5012964;28;20026;-67
2021/05/23 05:47:08;;;;;;;0.63;0.35;;;;;;;;;;5013639;28;20030;-68
2021/05/23 05:49:36;;;;;;;3.30;1.95;;;;;;;;;;5009256;28;20036;-67
2021/05/23 05:52:03;;;;;;;2.85;1.38;;;;;;;;;;5014820;28;20018;-67
2021/05/23 05:54:28;;;;;;;0.40;0.40;;;;;;;;;;5021191;28;20107;-67
2021/05/23 05:56:57;;;;;;;0.60;0.50;;;;;;;;;;5007945;28;20473;-67
2021/05/23 05:59:22;;;;;;;0.50;0.50;;;;;;;;;;5011187;28;20485;-67
2021/05/23 06:01:48;;;;;;;1.25;0.43;;;;;;;;;;5014975;28;20035;-68
2021/05/23 06:04:13;;;;;;;1.45;0.65;;;;;;;;;;4998166;28;20420;-68
2021/05/23 06:06:39;;;;;;;0.52;0.30;;;;;;;;;;5013400;28;20481;-68
2021/05/23 06:09:05;;;;;;;0.73;0.40;;;;;;;;;;5002483;28;20037;-68
2021/05/23 06:11:30;;;;;;;1.95;0.57;;;;;;;;;;5003813;28;20029;-68
2021/05/23 06:13:56;;;;;;;1.38;0.50;;;;;;;;;;4993593;28;20064;-68
2021/05/23 06:16:24;;;;;;;1.77;0.70;;;;;;;;;;5011706;28;20112;-68
2021/05/23 06:18:50;;;;;;;2.05;0.60;;;;;;;;;;4998394;28;20387;-68
2021/05/23 06:21:15;;;;;;;0.80;0.40;;;;;;;;;;5002404;28;20356;-68
2021/05/23 06:23:41;;;;;;;1.48;0.65;;;;;;;;;;5004610;28;20044;-68
2021/05/23 06:26:12;;;;;;;2.25;0.80;;;;;;;;;;4999968;28;20025;-68
2021/05/23 06:28:38;;;;;;;1.98;0.70;;;;;;;;;;5002155;28;20102;-68
2021/05/23 06:31:03;;;;;;;1.70;0.55;;;;;;;;;;4996576;28;20144;-67
2021/05/23 06:33:29;;;;;;;0.50;0.50;;;;;;;;;;4998569;28;20021;-68
2021/05/23 06:35:54;;;;;;;0.40;0.40;;;;;;;;;;5005012;28;20076;-68
2021/05/23 06:38:20;;;;;;;2.40;0.60;;;;;;;;;;5010747;28;20029;-67
2021/05/23 06:40:45;;;;;;;1.20;0.70;;;;;;;;;;5007397;28;20129;-67
2021/05/23 06:43:10;;;;;;;1.38;0.60;;;;;;;;;;5009231;28;20108;-68
2021/05/23 06:45:36;;;;;;;0.88;0.63;;;;;;;;;;5020975;28;20512;-68
2021/05/23 06:48:01;;;;;;;0.60;0.60;;;;;;;;;;5014242;28;20075;-67
2021/05/23 06:50:27;;;;;;;0.88;0.85;;;;;;;;;;5015891;28;20063;-68
2021/05/23 06:52:52;;;;;;;1.80;0.60;;;;;;;;;;5007899;28;20093;-68
2021/05/23 06:55:18;;;;;;;0.90;0.40;;;;;;;;;;5002080;28;20026;-68
2021/05/23 06:57:43;;;;;;;1.15;0.50;;;;;;;;;;5010223;28;20511;-69
2021/05/23 07:00:09;;;;;;;0.98;0.68;;;;;;;;;;5018012;28;20341;-67
2021/05/23 07:02:35;;;;;;;1.23;0.63;;;;;;;;;;5016990;28;20152;-67
2021/05/23 07:05:00;;;;;;;1.17;0.52;;;;;;;;;;5019369;28;20029;-67
2021/05/23 07:07:26;;;;;;;0.43;0.30;;;;;;;;;;5031511;28;20083;-68
2021/05/23 07:09:51;;;;;;;0.52;0.22;;;;;;;;;;5009744;28;20032;-68
2021/05/23 07:12:17;;;;;;;0.80;0.40;;;;;;;;;;5003769;28;20030;-68
2021/05/23 07:14:42;;;;;;;1.77;0.30;;;;;;;;;;5012287;28;20562;-67
2021/05/23 07:17:07;;;;;;;0.30;0.30;;;;;;;;;;5014815;28;20548;-69
2021/05/23 07:19:33;;;;;;;0.68;0.50;;;;;;;;;;5003212;28;20058;-68
2021/05/23 07:22:01;;;;;;;1.52;0.57;;;;;;;;;;5018220;28;20026;-67
2021/05/23 07:24:26;;;;;;;1.15;0.40;;;;;;;;;;5006570;28;20052;-67
2021/05/23 07:26:52;;;;;;;1.88;0.30;;;;;;;;;;5009261;28;20049;-68
2021/05/23 07:29:17;;;;;;;1.50;0.50;;;;;;;;;;5024352;28;20029;-68
2021/05/23 07:31:43;;;;;;;3.38;0.80;;;;;;;;;;5002136;28;20343;-68
2021/05/23 07:34:08;;;;;;;1.08;0.50;;;;;;;;;;5004550;28;20025;-67
2021/05/23 07:36:33;;;;;;;1.33;0.40;;;;;;;;;;5016975;28;20026;-68
2021/05/23 07:38:59;;;;;;;0.55;0.40;;;;;;;;;;5010674;28;20037;-68
2021/05/23 07:41:24;;;;;;;0.93;0.38;;;;;;;;;;5000985;28;20029;-68
2021/05/23 07:43:50;;;;;;;1.05;0.70;;;;;;;;;;5004941;28;20037;-67
2021/05/23 07:46:16;;;;;;;0.82;0.32;;;;;;;;;;5003346;28;20042;-68
2021/05/23 07:48:41;;;;;;;1.70;0.50;;;;;;;;;;5014778;28;20034;-68
2021/05/23 07:51:09;;;;;;;1.20;0.32;;;;;;;;;;5005112;28;20017;-67
2021/05/23 07:53:35;;;;;;;1.27;0.65;;;;;;;;;;5015822;28;20041;-68
2021/05/23 07:56:00;;;;;;;0.70;0.30;;;;;;;;;;5004940;28;20026;-68
2021/05/23 07:58:27;;;;;;;2.30;0.40;;;;;;;;;;5020447;28;20041;-68
2021/05/23 08:00:53;;;;;;;1.10;0.57;;;;;;;;;;5021593;28;20129;-67
2021/05/23 08:03:18;;;;;;;2.67;0.47;;;;;;;;;;5014819;28;20084;-68
2021/05/23 08:05:44;;;;;;;1.33;0.57;;;;;;;;;;5012302;28;20353;-69
2021/05/23 08:08:09;;;;;;;1.10;0.70;;;;;;;;;;4998379;28;20022;-67
2021/05/23 08:10:35;;;;;;;1.70;0.45;;;;;;;;;;5018181;28;20032;-68
2021/05/23 08:13:00;;;;;;;0.85;0.47;;;;;;;;;;5010800;28;20098;-68
2021/05/23 08:15:26;;;;;;;0.52;0.50;;;;;;;;;;5022587;28;20531;-68
2021/05/23 08:17:53;;;;;;;1.77;0.70;;;;;;;;;;4995889;28;20091;-67
2021/05/23 08:20:19;;;;;;;1.85;0.38;;;;;;;;;;5007114;28;20044;-68
2021/05/23 08:22:45;;;;;;;0.70;0.50;;;;;;;;;;5012595;28;20477;-68
2021/05/23 08:25:11;;;;;;;1.27;0.57;;;;;;;;;;5005712;28;20034;-68
2021/05/23 08:27:37;;;;;;;2.38;0.50;;;;;;;;;;4999171;28;20041;-69
2021/05/23 08:30:04;;;;;;;0.40;0.40;;;;;;;;;;5013195;28;20401;-69
2021/05/23 08:32:29;;;;;;;0.82;0.38;;;;;;;;;;5000950;28;20025;-68
2021/05/23 08:34:54;;;;;;;0.98;0.60;;;;;;;;;;5004531;28;20448;-68
2021/05/23 08:37:20;;;;;;;1.35;0.50;;;;;;;;;;5021952;28;20497;-68
2021/05/23 08:39:46;;;;;;;2.55;0.60;;;;;;;;;;5006529;28;20042;-68
2021/05/23 08:42:11;;;;;;;1.23;0.60;;;;;;;;;;5005308;28;20036;-68
2021/05/23 08:44:37;;;;;;;1.48;0.88;;;;;;;;;;4997495;28;20053;-68
2021/05/23 08:47:03;;;;;;;2.50;0.80;;;;;;;;;;5007907;28;20069;-68
2021/05/23 08:49:31;;;;;;;0.75;0.40;;;;;;;;;;5017922;28;20384;-69
2021/05/23 08:51:56;;;;;;;2.85;2.65;;;;;;;;;;5012116;28;20435;-67
2021/05/23 08:54:25;;;;;;;2.50;2.40;;;;;;;;;;5000984;28;20037;-69
2021/05/23 08:56:52;;;;;;;2.80;2.70;;;;;;;;;;5001633;28;20026;-68
2021/05/23 08:59:19;;;;;;;1.95;0.52;;;;;;;;;;5021137;28;20075;-68
2021/05/23 09:01:47;;;;;;;2.80;2.60;;;;;;;;;;5017006;28;20489;-67
2021/05/23 09:04:20;;;;;;;2.92;2.72;;;;;;;;;;5008041;28;20109;-68
2021/05/23 09:06:48;;;;;;;5.45;2.90;;;;;;;;;;5013459;28;20026;-69
2021/05/23 09:09:18;;;;;;;4.28;1.90;;;;;;;;;;5007356;28;20068;-68
2021/05/23 09:11:59;;;;;;;2.30;2.10;;;;;;;;;;5016693;28;20038;-68
2021/05/23 09:14:38;;;;;;;2.53;2.10;;;;;;;;;;5002611;28;20026;-69
2021/05/23 09:17:06;;;;;;;3.00;2.60;;;;;;;;;;5006855;28;20492;-69
2021/05/23 09:19:42;;;;;;;2.78;2.58;;;;;;;;;;5006367;28;20468;-68
2021/05/23 09:22:11;;;;;;;3.28;3.03;;;;;;;;;;5011770;28;20112;-68
2021/05/23 09:24:51;;;;;;;3.92;3.63;;;;;;;;;;5005005;28;20034;-68
2021/05/23 09:27:16;;;;;;;2.97;2.78;;;;;;;;;;5007870;28;20033;-67
2021/05/23 09:29:42;;;;;;;2.33;2.22;;;;;;;;;;5013106;28;20022;-67
2021/05/23 09:32:18;;;;;;;3.03;2.67;;;;;;;;;;5007012;28;20126;-68
2021/05/23 09:34:47;;;;;;;2.40;2.20;;;;;;;;;;5010538;28;20044;-68
2021/05/23 09:37:16;;;;;;;3.47;3.33;;;;;;;;;;5012025;28;20021;-68
2021/05/23 09:39:42;;;;;;;3.33;3.13;;;;;;;;;;4998021;28;20200;-68
2021/05/23 09:42:15;;;;;;;3.97;3.67;;;;;;;;;;4997543;28;20033;-68
2021/05/23 09:44:41;;;;;;;2.28;2.10;;;;;;;;;;5010348;28;20481;-68
2021/05/23 09:47:10;;;;;;;3.90;3.60;;;;;;;;;;5008930;28;20030;-69
2021/05/23 09:49:42;;;;;;;4.20;3.80;;;;;;;;;;5012908;28;20144;-69
2021/05/23 09:52:10;;;;;;;4.60;3.83;;;;;;;;;;5002181;28;20478;-68
2021/05/23 09:54:47;;;;;;;3.45;3.15;;;;;;;;;;5010574;28;20125;-68
2021/05/23 09:57:20;;;;;;;4.47;4.07;;;;;;;;;;5010692;28;20045;-67
2021/05/23 09:59:57;;;;;;;3.58;3.28;;;;;;;;;;4996266;28;20168;-67
2021/05/23 10:02:22;;;;;;;3.60;3.00;;;;;;;;;;5002453;28;20060;-68
2021/05/23 10:04:48;;;;;;;3.00;2.80;;;;;;;;;;5012653;28;20033;-67
2021/05/23 10:07:13;;;;;;;3.03;2.83;;;;;;;;;;5017573;28;20044;-68
2021/05/23 10:09:40;;;;;;;4.05;3.75;;;;;;;;;;5005034;28;20026;-68
2021/05/23 10:12:08;;;;;;;3.67;3.38;;;;;;;;;;5005074;28;20030;-68
2021/05/23 10:14:37;;;;;;;3.78;3.00;;;;;;;;;;5010189;28;20040;-68
2021/05/23 10:17:06;;;;;;;3.83;2.00;;;;;;;;;;5000036;28;20025;-67
2021/05/23 10:19:36;;;;;;;4.10;3.70;;;;;;;;;;5009853;28;20104;-68
2021/05/23 10:22:04;;;;;;;3.13;2.92;;;;;;;;;;5014231;28;20045;-68
2021/05/23 10:24:32;;;;;;;2.05;1.85;;;;;;;;;;5011925;28;20026;-68
2021/05/23 10:27:12;;;;;;;1.75;1.42;;;;;;;;;;5006261;28;20172;-69
2021/05/23 10:29:43;;;;;;;1.92;1.20;;;;;;;;;;5004737;28;20044;-69
2021/05/23 10:32:11;;;;;;;2.25;0.77;;;;;;;;;;5014166;28;20104;-68
2021/05/23 10:34:43;;;;;;;3.42;1.10;;;;;;;;;;5006091;28;20021;-69
2021/05/23 10:37:10;;;;;;;2.03;1.85;;;;;;;;;;5014157;28;20021;-69
2021/05/23 10:39:42;;;;;;;2.47;1.38;;;;;;;;;;5010385;28;20311;-68
2021/05/23 10:42:12;;;;;;;2.13;0.85;;;;;;;;;;5010586;28;20028;-69
2021/05/23 10:44:46;;;;;;;1.20;0.82;;;;;;;;;;5013421;28;20534;-69
2021/05/23 10:47:16;;;;;;;2.22;1.33;;;;;;;;;;5018188;28;20022;-70
2021/05/23 10:49:52;;;;;;;2.03;1.63;;;;;;;;;;5002222;28;20052;-69
2021/05/23 10:52:17;;;;;;;3.25;2.88;;;;;;;;;;5018892;28;20339;-68
2021/05/23 10:55:02;;;;;;;3.63;2.97;;;;;;;;;;5001295;28;20167;-69
2021/05/23 10:57:49;;;;;;;3.85;3.55;;;;;;;;;;5011360;28;20584;-69
2021/05/23 11:00:39;;;;;;;2.50;2.35;;;;;;;;;;5017491;28;20030;-68
2021/05/23 11:03:13;;;;;;;1.95;1.05;;;;;;;;;;5015688;28;20545;-69
2021/05/23 11:05:39;;;;;;;2.35;1.73;;;;;;;;;;5015068;28;20080;-68
2021/05/23 11:08:07;;;;;;;4.00;3.80;;;;;;;;;;5004091;28;20401;-70
2021/05/23 11:10:50;;;;;;;2.38;2.28;;;;;;;;;;5014449;28;20037;-69
2021/05/23 11:13:29;;;;;;;4.18;3.92;;;;;;;;;;5003757;28;20103;-68
2021/05/23 11:15:55;;;;;;;3.28;2.97;;;;;;;;;;4998100;28;20496;-69
2021/05/23 11:18:23;;;;;;;3.40;3.20;;;;;;;;;;5007354;28;20053;-69
2021/05/23 11:21:06;;;;;;;2.75;2.47;;;;;;;;;;4996642;28;20056;-68
2021/05/23 11:23:43;;;;;;;3.97;3.78;;;;;;;;;;5001158;28;20033;-68
2021/05/23 11:26:11;;;;;;;3.17;3.03;;;;;;;;;;5002569;28;20489;-68
2021/05/23 11:28:37;;;;;;;3.30;3.10;;;;;;;;;;5007257;28;20563;-69
2021/05/23 11:31:03;;;;;;;4.28;1.20;;;;;;;;;;5006347;28;20018;-69
2021/05/23 11:33:34;;;;;;;1.70;1.60;;;;;;;;;;5014999;28;20516;-68
2021/05/23 11:35:59;;;;;;;1.52;0.50;;;;;;;;;;5008864;28;20084;-68
2021/05/23 11:38:36;;;;;;;2.70;0.70;;;;;;;;;;5009021;28;20050;-68
2021/05/23 11:41:02;;;;;;;3.97;0.93;;;;;;;;;;5008349;28;20025;-68
2021/05/23 11:43:28;;;;;;;2.33;0.60;;;;;;;;;;5012260;28;20037;-68
2021/05/23 11:46:05;;;;;;;2.15;0.80;;;;;;;;;;5010691;28;20553;-69
2021/05/23 11:48:41;;;;;;;0.88;0.82;;;;;;;;;;5008382;28;20181;-70
2021/05/23 11:51:13;;;;;;;1.85;1.58;;;;;;;;;;5008079;28;20029;-67
2021/05/23 11:53:43;;;;;;;1.35;0.82;;;;;;;;;;5014759;28;20126;-69
2021/05/23 11:56:11;;;;;;;;;;;;;;;;;;5025944;28;20083;-68
2021/05/23 11:58:37;;;;;;;1.60;0.77;;;;;;;;;;5012352;28;20293;-68
2021/05/23 12:01:19;;;;;;;1.73;1.63;;;;;;;;;;5008396;28;20096;-69
2021/05/23 12:03:55;;;;;;;3.28;2.63;;;;;;;;;;5013214;28;20037;-69
2021/05/23 12:06:29;;;;;;;2.38;2.22;;;;;;;;;;4998755;28;20026;-68
2021/05/23 12:09:17;;;;;;;3.78;3.42;;;;;;;;;;5011556;28;20030;-69
2021/05/23 12:11:49;;;;;;;8.27;7.47;;;;;;;;;;5007023;28;20079;-70
2021/05/23 12:14:25;;;;;;;2.65;2.45;;;;;;;;;;5011788;28;20030;-70
2021/05/23 12:17:12;;;;;;;4.07;3.78;;;;;;;;;;5021002;28;20060;-69
2021/05/23 12:19:49;;;;;;;3.53;3.15;;;;;;;;;;5005235;28;20038;-69
2021/05/23 12:22:27;;;;;;;3.40;2.53;;;;;;;;;;5012903;28;20025;-69
2021/05/23 12:25:11;;;;;;;2.38;2.28;;;;;;;;;;5008539;28;20025;-69
2021/05/23 12:27:52;;;;;;;2.75;2.55;;;;;;;;;;5003023;28;20135;-69
2021/05/23 12:30:25;;;;;;;2.42;1.70;;;;;;;;;;5008680;28;20047;-67
2021/05/23 12:33:02;;;;;;;2.60;2.38;;;;;;;;;;4998628;28;20022;-70
2021/05/23 12:35:30;;;;;;;2.75;2.55;;;;;;;;;;5001718;28;20028;-69
2021/05/23 12:38:00;;;;;;;1.45;1.35;;;;;;;;;;5008865;28;20111;-69
2021/05/23 12:40:29;;;;;;;3.42;3.15;;;;;;;;;;4999041;28;20513;-68
2021/05/23 12:43:24;;;;;;;3.72;3.47;;;;;;;;;;5006105;28;20100;-69
2021/05/23 12:45:49;;;;;;;4.55;4.25;;;;;;;;;;5001536;28;20257;-69
2021/05/23 12:48:15;;;;;;;2.88;2.70;;;;;;;;;;5008125;28;20577;-68
2021/05/23 12:50:45;;;;;;;3.70;3.50;;;;;;;;;;5015609;28;20025;-68
2021/05/23 12:53:23;;;;;;;1.85;1.75;;;;;;;;;;5006119;28;20093;-68
2021/05/23 12:55:49;;;;;;;5.40;5.00;;;;;;;;;;4999728;28;20027;-68
2021/05/23 12:58:20;;;;;;;1.33;0.50;;;;;;;;;;5010249;28;20128;-69
2021/05/23 13:00:47;;;;;;;3.72;3.42;;;;;;;;;;5013648;28;20033;-68
2021/05/23 13:03:16;;;;;;;2.25;2.05;;;;;;;;;;4999031;28;20030;-68
2021/05/23 13:05:57;;;;;;;3.92;3.65;;;;;;;;;;5006305;28;20036;-69
2021/05/23 13:08:29;;;;;;;3.63;3.33;;;;;;;;;;5012749;28;20045;-69
2021/05/23 13:10:54;;;;;;;3.28;3.05;;;;;;;;;;5004611;28;20034;-69
2021/05/23 13:13:20;;;;;;;3.05;2.80;;;;;;;;;;5015338;28;20385;-68
2021/05/23 13:15:45;;;;;;;3.22;2.95;;;;;;;;;;5015217;28;20101;-69
2021/05/23 13:18:11;;;;;;;3.15;2.40;;;;;;;;;;5010851;28;20173;-68
2021/05/23 13:20:38;;;;;;;3.03;2.83;;;;;;;;;;5013967;28;20033;-68
2021/05/23 13:23:08;;;;;;;3.05;2.60;;;;;;;;;;4998275;28;20029;-69
2021/05/23 13:25:33;;;;;;;2.22;0.95;;;;;;;;;;5006777;28;20042;-69
2021/05/23 13:28:00;;;;;;;3.20;2.10;;;;;;;;;;5002824;28;20032;-68
2021/05/23 13:30:28;;;;;;;2.33;1.75;;;;;;;;;;5009586;28;20056;-68
2021/05/23 13:32:59;;;;;;;4.75;3.17;;;;;;;;;;5020966;28;20029;-67
2021/05/23 13:35:25;;;;;;;2.50;1.50;;;;;;;;;;5010503;28;20021;-68
2021/05/23 13:37:54;;;;;;;5.22;2.67;;;;;;;;;;5015230;28;20436;-69
2021/05/23 13:40:23;;;;;;;2.90;2.63;;;;;;;;;;5008829;28;20450;-68
2021/05/23 13:42:48;;;;;;;2.58;2.28;;;;;;;;;;4998057;28;20031;-69
2021/05/23 13:45:18;;;;;;;4.18;3.60;;;;;;;;;;5001438;28;20025;-68
2021/05/23 13:47:45;;;;;;;3.60;3.30;;;;;;;;;;5003168;28;20403;-67
2021/05/23 13:50:12;;;;;;;3.88;3.67;;;;;;;;;;4997188;28;20022;-68
2021/05/23 13:52:37;;;;;;;6.13;1.48;;;;;;;;;;5012317;28;20121;-68
2021/05/23 13:55:04;;;;;;;2.35;2.10;;;;;;;;;;5012634;28;20108;-69
2021/05/23 13:57:29;;;;;;;2.90;2.70;;;;;;;;;;5012873;28;20141;-68
2021/05/23 13:59:55;;;;;;;3.25;3.10;;;;;;;;;;5018284;28;20112;-68
2021/05/23 14:02:20;;;;;;;3.78;3.58;;;;;;;;;;5000493;28;20506;-68
2021/05/23 14:04:46;;;;;;;2.90;2.70;;;;;;;;;;5020186;28;20439;-68
2021/05/23 14:07:12;;;;;;;2.85;2.65;;;;;;;;;;4995034;28;20038;-68
2021/05/23 14:09:37;;;;;;;2.33;2.22;;;;;;;;;;5001353;28;20037;-68
2021/05/23 14:12:03;;;;;;;3.03;2.75;;;;;;;;;;5001363;28;20296;-68
2021/05/23 14:14:29;;;;;;;2.60;2.40;;;;;;;;;;5008671;28;20112;-68
2021/05/23 14:16:55;;;;;;;2.65;1.48;;;;;;;;;;5005903;28;20105;-68
2021/05/23 14:19:20;;;;;;;1.52;1.35;;;;;;;;;;5006386;28;20121;-68
2021/05/23 14:21:48;;;;;;;2.67;0.80;;;;;;;;;;5005568;28;20438;-69
2021/05/23 14:24:16;;;;;;;1.00;0.85;;;;;;;;;;5012783;28;20046;-69
2021/05/23 14:26:41;;;;;;;1.58;0.75;;;;;;;;;;5007798;28;20034;-69
2021/05/23 14:29:07;;;;;;;2.28;2.08;;;;;;;;;;5010304;28;20040;-68
2021/05/23 14:31:33;;;;;;;2.78;2.67;;;;;;;;;;5008292;28;20021;-69
2021/05/23 14:33:59;;;;;;;3.20;3.00;;;;;;;;;;5001772;28;20033;-69
2021/05/23 14:36:25;;;;;;;2.03;0.40;;;;;;;;;;5004623;28;20152;-68
2021/05/23 14:38:51;;;;;;;3.20;3.00;;;;;;;;;;5014529;28;20022;-69
2021/05/23 14:41:19;;;;;;;3.17;2.95;;;;;;;;;;5021276;28;20444;-69
2021/05/23 14:43:46;;;;;;;1.70;0.40;;;;;;;;;;5007782;28;20027;-68
2021/05/23 14:46:11;;;;;;;1.42;0.65;;;;;;;;;;5012404;28;20029;-68
2021/05/23 14:48:37;;;;;;;0.50;0.30;;;;;;;;;;5022915;28;20388;-68